Time;durP1;ratioP1;P1;durP2;ratioP2;P2;SDS_P1;SDS_P2;PMS_P1;PMS_P2;Temp;Humidity;BMP_temperature;BMP_pressure;BME280_temperature;BME280_humidity;BME280_pressure;Samples;Min_cycle;Max_cycle;Signal;HPM_P1;HPM_P2
2021/11/03 00:00:33;;;;;;;6.95;6.55;;;;;;;;;;5023291;28;20058;-54
2021/11/03 00:03:01;;;;;;;11.13;7.90;;;;;;;;;;5021973;28;20128;-55
2021/11/03 00:05:28;;;;;;;6.65;6.45;;;;;;;;;;5027627;28;20343;-55
2021/11/03 00:07:57;;;;;;;9.27;8.88;;;;;;;;;;5029049;28;20042;-55
2021/11/03 00:10:23;;;;;;;6.82;6.18;;;;;;;;;;5026876;28;20053;-54
2021/11/03 00:12:50;;;;;;;1.98;1.73;;;;;;;;;;5025648;28;20045;-56
2021/11/03 00:15:17;;;;;;;5.40;5.10;;;;;;;;;;5029349;28;20049;-55
2021/11/03 00:17:49;;;;;;;9.25;8.80;;;;;;;;;;5029867;28;20041;-55
2021/11/03 00:20:16;;;;;;;11.88;10.80;;;;;;;;;;5028661;28;20038;-55
2021/11/03 00:22:43;;;;;;;7.50;6.65;;;;;;;;;;5031590;28;20483;-56
2021/11/03 00:25:10;;;;;;;8.35;7.57;;;;;;;;;;5039420;28;20088;-56
2021/11/03 00:27:37;;;;;;;9.00;7.88;;;;;;;;;;5031270;28;20042;-55
2021/11/03 00:30:04;;;;;;;8.70;8.40;;;;;;;;;;5024520;28;20115;-55
2021/11/03 00:32:31;;;;;;;9.10;8.65;;;;;;;;;;5028853;28;20048;-55
2021/11/03 00:34:58;;;;;;;8.27;6.32;;;;;;;;;;5031992;28;20041;-56
2021/11/03 00:37:25;;;;;;;8.05;7.85;;;;;;;;;;5026543;28;20041;-56
2021/11/03 00:39:52;;;;;;;9.80;9.05;;;;;;;;;;5030587;28;20088;-51
2021/11/03 00:42:18;;;;;;;11.25;10.48;;;;;;;;;;5025756;28;20390;-56
2021/11/03 00:44:45;;;;;;;12.15;11.43;;;;;;;;;;5025246;28;20056;-55
2021/11/03 00:47:12;;;;;;;11.98;10.93;;;;;;;;;;5030432;28;20061;-55
2021/11/03 00:49:39;;;;;;;10.05;9.60;;;;;;;;;;5028248;28;20037;-56
2021/11/03 00:52:05;;;;;;;6.97;6.63;;;;;;;;;;5028035;28;20397;-56
2021/11/03 00:54:32;;;;;;;6.95;6.32;;;;;;;;;;5031026;28;20039;-55
2021/11/03 00:56:59;;;;;;;8.65;5.25;;;;;;;;;;5024071;28;20046;-52
2021/11/03 00:59:26;;;;;;;8.80;6.90;;;;;;;;;;5016497;28;20044;-56
2021/11/03 01:01:53;;;;;;;7.32;6.75;;;;;;;;;;5039383;28;20564;-55
2021/11/03 01:04:20;;;;;;;6.85;6.38;;;;;;;;;;5013525;28;20363;-55
2021/11/03 01:06:47;;;;;;;9.05;8.43;;;;;;;;;;5028434;28;20029;-54
2021/11/03 01:09:15;;;;;;;8.23;7.68;;;;;;;;;;5029160;28;20464;-55
2021/11/03 01:11:42;;;;;;;9.43;9.15;;;;;;;;;;5022401;28;20049;-55
2021/11/03 01:14:10;;;;;;;6.88;6.50;;;;;;;;;;5028767;28;20088;-55
2021/11/03 01:16:37;;;;;;;6.70;6.10;;;;;;;;;;5028996;28;20029;-55
2021/11/03 01:19:05;;;;;;;9.60;8.80;;;;;;;;;;5028339;28;20095;-55
2021/11/03 01:21:33;;;;;;;8.90;8.30;;;;;;;;;;5029552;28;20370;-56
2021/11/03 01:23:59;;;;;;;9.43;8.82;;;;;;;;;;5017951;28;20052;-55
2021/11/03 01:26:26;;;;;;;8.90;8.18;;;;;;;;;;5029959;28;20038;-55
2021/11/03 01:28:53;;;;;;;8.57;8.02;;;;;;;;;;5018028;28;20121;-55
2021/11/03 01:31:20;;;;;;;7.07;6.45;;;;;;;;;;5029012;28;20432;-55
2021/11/03 01:33:47;;;;;;;7.47;6.68;;;;;;;;;;5026311;28;20049;-55
2021/11/03 01:36:13;;;;;;;7.78;7.22;;;;;;;;;;5029462;28;20046;-54
2021/11/03 01:38:40;;;;;;;7.93;6.95;;;;;;;;;;5023104;28;20036;-56
2021/11/03 01:41:07;;;;;;;11.38;10.02;;;;;;;;;;5025491;28;20053;-55
2021/11/03 01:43:34;;;;;;;13.63;12.88;;;;;;;;;;5017386;28;20050;-55
2021/11/03 01:46:20;;;;;;;14.32;13.35;;;;;;;;;;5022573;28;20037;-54
2021/11/03 01:48:47;;;;;;;12.77;12.00;;;;;;;;;;5028923;28;20429;-54
2021/11/03 01:51:16;;;;;;;14.00;13.48;;;;;;;;;;5018534;28;20561;-55
2021/11/03 01:53:43;;;;;;;13.77;12.43;;;;;;;;;;5026788;28;20041;-55
2021/11/03 01:56:10;;;;;;;12.55;11.85;;;;;;;;;;5019882;28;20042;-55
2021/11/03 01:58:41;;;;;;;12.07;11.30;;;;;;;;;;5023860;28;20046;-56
2021/11/03 02:01:08;;;;;;;9.63;8.93;;;;;;;;;;5025777;28;20080;-55
2021/11/03 02:03:35;;;;;;;10.18;9.07;;;;;;;;;;5024442;28;20029;-54
2021/11/03 02:06:04;;;;;;;9.27;8.40;;;;;;;;;;5027486;28;20075;-56
2021/11/03 02:08:32;;;;;;;8.68;7.38;;;;;;;;;;5026106;28;20057;-55
2021/11/03 02:10:59;;;;;;;8.38;7.75;;;;;;;;;;5024477;28;20100;-55
2021/11/03 02:13:26;;;;;;;8.35;7.93;;;;;;;;;;5017831;28;20034;-55
2021/11/03 02:15:53;;;;;;;8.90;8.05;;;;;;;;;;5028921;28;20034;-56
2021/11/03 02:18:21;;;;;;;10.35;9.40;;;;;;;;;;5026575;28;20041;-55
2021/11/03 02:20:49;;;;;;;11.23;10.75;;;;;;;;;;5016012;28;20355;-53
2021/11/03 02:23:31;;;;;;;9.45;9.10;;;;;;;;;;5029715;28;20029;-54
2021/11/03 02:26:04;;;;;;;11.45;10.75;;;;;;;;;;5026520;28;20490;-56
2021/11/03 02:28:32;;;;;;;9.73;8.88;;;;;;;;;;5030556;28;20048;-55
2021/11/03 02:30:59;;;;;;;8.40;7.82;;;;;;;;;;5032097;28;20054;-54
2021/11/03 02:33:26;;;;;;;9.38;8.70;;;;;;;;;;5032447;28;20045;-55
2021/11/03 02:35:58;;;;;;;9.65;8.73;;;;;;;;;;5033080;28;20049;-54
2021/11/03 02:38:28;;;;;;;10.50;10.23;;;;;;;;;;5031436;28;20115;-54
2021/11/03 02:41:08;;;;;;;12.65;11.38;;;;;;;;;;5024380;28;20477;-55
2021/11/03 02:43:40;;;;;;;12.15;11.43;;;;;;;;;;5033357;28;20096;-54
2021/11/03 02:46:07;;;;;;;14.60;13.73;;;;;;;;;;5031793;28;20033;-56
2021/11/03 02:48:36;;;;;;;11.93;11.32;;;;;;;;;;5017033;28;20034;-53
2021/11/03 02:51:05;;;;;;;14.38;13.30;;;;;;;;;;5030768;28;20111;-56
2021/11/03 02:53:34;;;;;;;11.88;11.48;;;;;;;;;;5031768;28;20047;-55
2021/11/03 02:56:01;;;;;;;12.73;12.10;;;;;;;;;;5032906;28;20041;-54
2021/11/03 02:58:28;;;;;;;13.15;12.48;;;;;;;;;;5032752;28;20099;-55
2021/11/03 03:00:55;;;;;;;10.38;9.75;;;;;;;;;;5023127;28;20042;-55
2021/11/03 03:03:22;;;;;;;9.65;9.20;;;;;;;;;;5026115;28;20043;-55
2021/11/03 03:05:58;;;;;;;12.88;12.18;;;;;;;;;;5021243;28;20403;-55
2021/11/03 03:08:25;;;;;;;13.10;12.70;;;;;;;;;;5019150;28;20042;-54
2021/11/03 03:10:52;;;;;;;13.55;12.35;;;;;;;;;;5028433;28;20489;-54
2021/11/03 03:13:19;;;;;;;13.05;12.38;;;;;;;;;;5022623;28;20083;-55
2021/11/03 03:15:45;;;;;;;11.52;10.93;;;;;;;;;;5024707;28;20532;-55
2021/11/03 03:18:12;;;;;;;12.85;12.25;;;;;;;;;;5029918;28;20041;-56
2021/11/03 03:20:39;;;;;;;10.25;9.93;;;;;;;;;;5032164;28;20497;-56
2021/11/03 03:23:06;;;;;;;12.43;11.57;;;;;;;;;;5028148;28;20051;-56
2021/11/03 03:25:33;;;;;;;9.82;9.18;;;;;;;;;;5029565;28;20536;-55
2021/11/03 03:28:00;;;;;;;10.73;9.95;;;;;;;;;;5024242;28;20536;-55
2021/11/03 03:30:27;;;;;;;9.88;9.02;;;;;;;;;;5031293;28;20049;-56
2021/11/03 03:32:53;;;;;;;10.93;9.50;;;;;;;;;;5023053;28;20049;-53
2021/11/03 03:35:20;;;;;;;9.30;8.90;;;;;;;;;;5030852;28;20056;-54
2021/11/03 03:37:49;;;;;;;10.68;10.25;;;;;;;;;;5030753;28;20045;-54
2021/11/03 03:40:17;;;;;;;10.70;10.05;;;;;;;;;;5024400;28;20049;-53
2021/11/03 03:42:44;;;;;;;12.90;12.32;;;;;;;;;;5030739;28;20050;-54
2021/11/03 03:45:11;;;;;;;14.73;13.80;;;;;;;;;;5030766;28;20037;-55
2021/11/03 03:47:38;;;;;;;11.27;10.80;;;;;;;;;;5029299;28;20508;-55
2021/11/03 03:50:05;;;;;;;11.07;10.48;;;;;;;;;;5030058;28;20049;-56
2021/11/03 03:52:32;;;;;;;9.80;8.98;;;;;;;;;;5029776;28;20029;-55
2021/11/03 03:54:58;;;;;;;10.40;9.55;;;;;;;;;;5028924;28;20045;-55
2021/11/03 03:57:26;;;;;;;10.13;9.45;;;;;;;;;;5030212;28;20049;-54
2021/11/03 03:59:53;;;;;;;11.45;10.60;;;;;;;;;;5024895;28;20184;-55
2021/11/03 04:02:20;;;;;;;10.13;9.20;;;;;;;;;;5044784;28;20033;-55
2021/11/03 04:04:47;;;;;;;11.38;10.38;;;;;;;;;;5030099;28;20042;-55
2021/11/03 04:07:14;;;;;;;12.73;11.70;;;;;;;;;;5029332;28;20037;-54
2021/11/03 04:09:41;;;;;;;13.40;12.32;;;;;;;;;;5032291;28;20079;-55
2021/11/03 04:12:08;;;;;;;15.15;14.07;;;;;;;;;;5024224;28;20038;-53
2021/11/03 04:14:35;;;;;;;13.63;12.55;;;;;;;;;;5021087;28;20041;-54
2021/11/03 04:17:01;;;;;;;13.48;12.05;;;;;;;;;;5030612;28;20053;-56
2021/11/03 04:19:28;;;;;;;13.73;12.88;;;;;;;;;;5026807;28;20041;-55
2021/11/03 04:21:55;;;;;;;13.75;12.43;;;;;;;;;;5031665;28;20563;-55
2021/11/03 04:24:22;;;;;;;9.57;9.30;;;;;;;;;;5022824;28;20046;-55
2021/11/03 04:26:48;;;;;;;10.60;9.77;;;;;;;;;;5022285;28;20038;-54
2021/11/03 04:29:16;;;;;;;13.75;11.07;;;;;;;;;;5024384;28;20096;-54
2021/11/03 04:31:43;;;;;;;7.18;6.68;;;;;;;;;;5028577;28;20045;-55
2021/11/03 04:34:10;;;;;;;10.30;9.85;;;;;;;;;;5031376;28;20435;-54
2021/11/03 04:36:37;;;;;;;11.07;10.23;;;;;;;;;;5030415;28;20081;-55
2021/11/03 04:39:05;;;;;;;12.45;11.27;;;;;;;;;;5021762;28;20045;-56
2021/11/03 04:41:32;;;;;;;9.70;9.13;;;;;;;;;;5029869;28;20033;-54
2021/11/03 04:43:58;;;;;;;11.02;10.15;;;;;;;;;;5028267;28;20045;-55
2021/11/03 04:46:25;;;;;;;10.52;10.13;;;;;;;;;;5021067;28;20068;-54
2021/11/03 04:48:52;;;;;;;11.30;10.73;;;;;;;;;;5023130;28;20029;-54
2021/11/03 04:51:19;;;;;;;11.15;10.55;;;;;;;;;;5029219;28;20054;-55
2021/11/03 04:53:46;;;;;;;12.93;11.98;;;;;;;;;;5030962;28;20033;-54
2021/11/03 04:56:13;;;;;;;12.35;11.63;;;;;;;;;;5028389;28;20045;-56
2021/11/03 04:58:40;;;;;;;16.35;14.68;;;;;;;;;;5030851;28;20053;-55
2021/11/03 05:01:07;;;;;;;15.05;13.63;;;;;;;;;;5026517;28;20053;-54
2021/11/03 05:03:39;;;;;;;16.05;14.90;;;;;;;;;;5029490;28;20037;-54
2021/11/03 05:06:06;;;;;;;13.15;12.48;;;;;;;;;;5030176;28;20048;-53
2021/11/03 05:08:33;;;;;;;16.35;15.55;;;;;;;;;;5022930;28;20045;-54
2021/11/03 05:11:00;;;;;;;16.63;15.82;;;;;;;;;;5025727;28;20397;-56
2021/11/03 05:13:27;;;;;;;15.20;14.05;;;;;;;;;;5017035;28;20050;-54
2021/11/03 05:15:54;;;;;;;13.18;12.75;;;;;;;;;;5026507;28;20398;-55
2021/11/03 05:18:20;;;;;;;17.95;16.33;;;;;;;;;;5028883;28;20088;-55
2021/11/03 05:20:47;;;;;;;10.95;10.20;;;;;;;;;;5027838;28;20100;-54
2021/11/03 05:23:14;;;;;;;11.68;11.10;;;;;;;;;;5024808;28;20056;-55
2021/11/03 05:25:41;;;;;;;14.48;13.88;;;;;;;;;;5030876;28;20057;-55
2021/11/03 05:28:09;;;;;;;17.67;16.38;;;;;;;;;;5025032;28;20096;-55
2021/11/03 05:30:36;;;;;;;13.65;13.15;;;;;;;;;;5022330;28;20037;-54
2021/11/03 05:33:03;;;;;;;13.93;13.15;;;;;;;;;;5028387;28;20037;-55
2021/11/03 05:35:29;;;;;;;14.68;13.10;;;;;;;;;;5025610;28;20049;-50
2021/11/03 05:37:56;;;;;;;14.85;13.52;;;;;;;;;;5026985;28;20099;-54
2021/11/03 05:40:25;;;;;;;14.68;14.07;;;;;;;;;;5024413;28;20045;-56
2021/11/03 05:42:51;;;;;;;13.40;12.82;;;;;;;;;;5017222;28;20046;-55
2021/11/03 05:45:18;;;;;;;15.23;14.00;;;;;;;;;;5027911;28;20069;-53
2021/11/03 05:47:45;;;;;;;15.38;14.50;;;;;;;;;;5018816;28;20385;-54
2021/11/03 05:50:18;;;;;;;14.18;13.55;;;;;;;;;;5029215;28;20045;-54
2021/11/03 05:52:45;;;;;;;13.70;11.60;;;;;;;;;;5024784;28;20038;-55
2021/11/03 05:55:12;;;;;;;14.23;13.10;;;;;;;;;;5020933;28;20040;-54
2021/11/03 05:57:39;;;;;;;10.27;8.40;;;;;;;;;;5030067;28;20040;-55
2021/11/03 06:00:18;;;;;;;8.27;7.30;;;;;;;;;;5028426;28;20049;-54
2021/11/03 06:02:45;;;;;;;12.98;11.98;;;;;;;;;;5024897;28;20057;-55
2021/11/03 06:05:12;;;;;;;12.02;11.23;;;;;;;;;;5026964;28;20473;-55
2021/11/03 06:07:39;;;;;;;12.52;11.68;;;;;;;;;;5028060;28;20044;-54
2021/11/03 06:10:07;;;;;;;10.27;7.35;;;;;;;;;;5028858;28;20033;-54
2021/11/03 06:12:34;;;;;;;12.20;11.70;;;;;;;;;;5027586;28;20042;-55
2021/11/03 06:15:00;;;;;;;12.00;11.15;;;;;;;;;;5023956;28;20409;-55
2021/11/03 06:17:27;;;;;;;11.05;10.10;;;;;;;;;;5025271;28;20047;-55
2021/11/03 06:19:54;;;;;;;8.77;7.95;;;;;;;;;;5021043;28;20117;-53
2021/11/03 06:22:21;;;;;;;15.63;13.57;;;;;;;;;;5030061;28;20041;-52
2021/11/03 06:24:48;;;;;;;13.00;12.10;;;;;;;;;;5034607;28;20087;-52
2021/11/03 06:27:19;;;;;;;11.43;10.23;;;;;;;;;;5023016;28;20053;-53
2021/11/03 06:29:45;;;;;;;9.63;8.85;;;;;;;;;;5025378;28;20033;-50
2021/11/03 06:32:12;;;;;;;7.10;6.55;;;;;;;;;;5018251;28;20046;-53
2021/11/03 06:34:39;;;;;;;8.55;5.82;;;;;;;;;;5029650;28;20033;-48
2021/11/03 06:37:06;;;;;;;7.57;2.95;;;;;;;;;;5022859;28;20052;-51
2021/11/03 06:39:33;;;;;;;8.45;7.20;;;;;;;;;;5027197;28;20038;-52
2021/11/03 06:42:00;;;;;;;13.68;12.45;;;;;;;;;;5022749;28;20359;-53
2021/11/03 06:44:31;;;;;;;11.40;10.32;;;;;;;;;;5013261;28;20046;-53
2021/11/03 06:46:58;;;;;;;12.20;11.65;;;;;;;;;;5027576;28;20436;-51
2021/11/03 06:49:24;;;;;;;9.70;9.20;;;;;;;;;;5028463;28;20046;-53
2021/11/03 06:51:51;;;;;;;10.88;9.65;;;;;;;;;;5027985;28;20049;-53
2021/11/03 06:54:21;;;;;;;9.23;8.70;;;;;;;;;;5021854;28;20051;-52
2021/11/03 06:56:49;;;;;;;13.02;9.77;;;;;;;;;;5016819;28;20049;-51
2021/11/03 06:59:16;;;;;;;6.40;6.07;;;;;;;;;;5024656;28;20061;-52
2021/11/03 07:01:43;;;;;;;6.30;2.38;;;;;;;;;;5028517;28;20057;-51
2021/11/03 07:04:10;;;;;;;3.38;2.53;;;;;;;;;;5021450;28;20040;-52
2021/11/03 07:06:37;;;;;;;3.35;1.73;;;;;;;;;;5022611;28;20520;-52
2021/11/03 07:09:04;;;;;;;2.35;1.30;;;;;;;;;;5028922;28;20035;-52
2021/11/03 07:11:31;;;;;;;3.60;1.10;;;;;;;;;;5026484;28;20460;-52
2021/11/03 07:13:58;;;;;;;4.93;1.73;;;;;;;;;;5030449;28;20056;-52
2021/11/03 07:16:26;;;;;;;6.05;4.40;;;;;;;;;;5026167;28;20092;-53
2021/11/03 07:18:53;;;;;;;5.35;4.85;;;;;;;;;;5020950;28;20049;-52
2021/11/03 07:21:19;;;;;;;6.63;4.85;;;;;;;;;;5030912;28;20505;-53
2021/11/03 07:23:46;;;;;;;8.68;3.58;;;;;;;;;;5030471;28;20414;-50
2021/11/03 07:26:14;;;;;;;5.43;4.75;;;;;;;;;;5015956;28;20516;-53
2021/11/03 07:28:40;;;;;;;11.05;9.20;;;;;;;;;;5027328;28;20034;-52
2021/11/03 07:31:07;;;;;;;9.68;5.93;;;;;;;;;;5030751;28;20045;-52
2021/11/03 07:33:36;;;;;;;13.15;8.82;;;;;;;;;;5032936;28;20489;-52
2021/11/03 07:36:04;;;;;;;10.10;9.18;;;;;;;;;;5024580;28;20045;-51
2021/11/03 07:38:31;;;;;;;9.77;6.85;;;;;;;;;;5020538;28;20433;-52
2021/11/03 07:40:58;;;;;;;7.18;5.72;;;;;;;;;;5027942;28;20700;-52
2021/11/03 07:43:26;;;;;;;10.30;7.25;;;;;;;;;;5017679;28;20493;-53
2021/11/03 07:45:54;;;;;;;6.75;5.22;;;;;;;;;;5032724;28;20044;-51
2021/11/03 07:48:23;;;;;;;12.82;5.60;;;;;;;;;;5027049;28;20033;-52
2021/11/03 07:50:51;;;;;;;10.68;5.88;;;;;;;;;;5032519;28;20048;-47
2021/11/03 07:53:18;;;;;;;12.80;6.85;;;;;;;;;;5030138;28;20041;-52
2021/11/03 07:55:47;;;;;;;17.05;6.05;;;;;;;;;;5032845;28;20070;-52
2021/11/03 07:58:23;;;;;;;11.50;5.28;;;;;;;;;;5031638;28;20045;-52
2021/11/03 08:00:50;;;;;;;12.48;5.20;;;;;;;;;;5028069;28;20049;-52
2021/11/03 08:03:17;;;;;;;12.70;7.43;;;;;;;;;;5031392;28;20065;-53
2021/11/03 08:05:44;;;;;;;10.75;4.63;;;;;;;;;;5030722;28;20033;-53
2021/11/03 08:08:13;;;;;;;16.40;7.25;;;;;;;;;;5031687;28;20057;-53
2021/11/03 08:10:43;;;;;;;12.90;7.97;;;;;;;;;;5030819;28;20052;-52
2021/11/03 08:13:16;;;;;;;8.45;6.38;;;;;;;;;;5030775;28;20167;-53
2021/11/03 08:15:47;;;;;;;9.20;6.30;;;;;;;;;;5023199;28;20041;-53
2021/11/03 08:18:15;;;;;;;13.98;5.50;;;;;;;;;;5028574;28;20033;-53
2021/11/03 08:20:42;;;;;;;12.07;5.75;;;;;;;;;;5014313;28;20053;-53
2021/11/03 08:23:11;;;;;;;10.13;4.47;;;;;;;;;;5030536;28;20046;-52
2021/11/03 08:25:38;;;;;;;6.68;4.13;;;;;;;;;;5029866;28;20033;-51
2021/11/03 08:28:05;;;;;;;8.00;4.00;;;;;;;;;;5026607;28;20497;-53
2021/11/03 08:30:33;;;;;;;19.92;12.45;;;;;;;;;;5029126;28;20366;-49
2021/11/03 08:33:12;;;;;;;11.27;6.45;;;;;;;;;;5017220;28;20096;-53
2021/11/03 08:35:40;;;;;;;7.70;5.28;;;;;;;;;;5024811;28;20045;-50
2021/11/03 08:38:08;;;;;;;15.88;5.60;;;;;;;;;;5022283;28;20056;-53
2021/11/03 08:40:35;;;;;;;12.95;9.35;;;;;;;;;;5026823;28;20076;-53
2021/11/03 08:43:04;;;;;;;14.27;7.72;;;;;;;;;;5027857;28;20053;-53
2021/11/03 08:45:31;;;;;;;14.77;9.65;;;;;;;;;;5018597;28;20448;-53
2021/11/03 08:47:58;;;;;;;15.98;10.43;;;;;;;;;;5025144;28;20042;-49
2021/11/03 08:50:26;;;;;;;18.85;11.63;;;;;;;;;;5017216;28;20041;-53
2021/11/03 08:52:54;;;;;;;15.82;10.40;;;;;;;;;;5029479;28;20120;-53
2021/11/03 08:55:21;;;;;;;15.70;8.73;;;;;;;;;;5027323;28;20073;-52
2021/11/03 08:57:48;;;;;;;17.35;11.60;;;;;;;;;;5021732;28;20064;-53
2021/11/03 09:00:20;;;;;;;15.77;7.47;;;;;;;;;;5025604;28;20045;-52
2021/11/03 09:02:50;;;;;;;5.30;3.95;;;;;;;;;;5017546;28;20033;-53
2021/11/03 09:05:17;;;;;;;6.45;3.17;;;;;;;;;;5028063;28;20034;-53
2021/11/03 09:07:44;;;;;;;5.32;2.90;;;;;;;;;;5024908;28;20030;-53
2021/11/03 09:10:12;;;;;;;8.40;3.05;;;;;;;;;;5031146;28;20038;-53
2021/11/03 09:12:39;;;;;;;3.35;2.55;;;;;;;;;;5026218;28;20429;-53
2021/11/03 09:15:07;;;;;;;4.22;1.20;;;;;;;;;;5015379;28;20061;-53
2021/11/03 09:17:34;;;;;;;3.28;1.48;;;;;;;;;;5028788;28;20041;-54
2021/11/03 09:20:01;;;;;;;1.73;1.60;;;;;;;;;;5027118;28;20072;-51
2021/11/03 09:22:27;;;;;;;2.70;1.58;;;;;;;;;;5027941;28;20045;-53
2021/11/03 09:24:55;;;;;;;3.63;1.10;;;;;;;;;;5025831;28;20042;-54
2021/11/03 09:27:22;;;;;;;4.57;1.48;;;;;;;;;;5021062;28;20037;-53
2021/11/03 09:29:51;;;;;;;6.50;5.43;;;;;;;;;;5028288;28;20042;-53
2021/11/03 09:32:20;;;;;;;5.55;2.55;;;;;;;;;;5029006;28;20095;-53
2021/11/03 09:34:48;;;;;;;17.55;11.93;;;;;;;;;;5024253;28;20135;-53
2021/11/03 09:37:15;;;;;;;5.15;2.47;;;;;;;;;;5024074;28;20120;-53
2021/11/03 09:39:44;;;;;;;6.53;1.80;;;;;;;;;;5018334;28;20054;-48
2021/11/03 09:42:13;;;;;;;5.75;1.05;;;;;;;;;;5028742;28;20096;-53
2021/11/03 09:44:42;;;;;;;4.10;1.15;;;;;;;;;;5029364;28;20041;-53
2021/11/03 09:47:16;;;;;;;1.70;1.25;;;;;;;;;;5018288;28;20050;-52
2021/11/03 09:49:47;;;;;;;1.98;1.35;;;;;;;;;;5024541;28;20046;-51
2021/11/03 09:52:34;;;;;;;2.72;1.20;;;;;;;;;;5020200;28;20038;-53
2021/11/03 09:55:17;;;;;;;4.28;1.40;;;;;;;;;;5029356;28;20049;-52
2021/11/03 09:57:51;;;;;;;4.93;1.10;;;;;;;;;;5028345;28;20405;-53
2021/11/03 10:00:30;;;;;;;2.92;1.50;;;;;;;;;;5030780;28;20946;-53
2021/11/03 10:03:15;;;;;;;9.38;2.33;;;;;;;;;;5028429;28;20057;-54
2021/11/03 10:05:45;;;;;;;7.07;3.20;;;;;;;;;;5021721;28;20091;-53
2021/11/03 10:08:14;;;;;;;9.77;4.55;;;;;;;;;;5030118;28;20048;-53
2021/11/03 10:10:52;;;;;;;3.38;2.22;;;;;;;;;;5027733;28;20041;-53
2021/11/03 10:13:19;;;;;;;5.95;2.45;;;;;;;;;;5015361;28;20051;-52
2021/11/03 10:15:52;;;;;;;7.45;2.60;;;;;;;;;;5028592;28;20049;-53
2021/11/03 10:18:21;;;;;;;5.72;3.88;;;;;;;;;;5022711;28;20030;-53
2021/11/03 10:20:58;;;;;;;5.57;2.03;;;;;;;;;;5015076;28;20385;-54
2021/11/03 10:23:29;;;;;;;11.23;1.83;;;;;;;;;;5026607;28;20046;-53
2021/11/03 10:25:58;;;;;;;7.07;1.63;;;;;;;;;;5030901;28;20033;-50
2021/11/03 10:28:28;;;;;;;3.25;1.60;;;;;;;;;;5029656;28;20037;-53
2021/11/03 10:30:54;;;;;;;4.95;2.30;;;;;;;;;;5028207;28;20041;-54
2021/11/03 10:33:27;;;;;;;2.35;1.63;;;;;;;;;;5021356;28;20042;-53
2021/11/03 10:35:57;;;;;;;2.35;2.10;;;;;;;;;;5024754;28;20052;-54
2021/11/03 10:38:26;;;;;;;6.70;2.67;;;;;;;;;;5027428;28;20053;-53
2021/11/03 10:40:56;;;;;;;3.90;2.00;;;;;;;;;;5027870;28;20064;-53
2021/11/03 10:43:40;;;;;;;2.40;1.38;;;;;;;;;;5025323;28;20044;-53
2021/11/03 10:46:16;;;;;;;6.03;1.20;;;;;;;;;;5025275;28;20038;-52
2021/11/03 10:48:44;;;;;;;3.42;1.98;;;;;;;;;;5026786;28;20127;-54
2021/11/03 10:51:16;;;;;;;6.47;3.28;;;;;;;;;;5036503;28;20048;-52
2021/11/03 10:53:49;;;;;;;5.35;3.15;;;;;;;;;;5032227;28;20107;-54
2021/11/03 10:56:23;;;;;;;7.70;2.33;;;;;;;;;;5036902;28;20052;-53
2021/11/03 10:58:50;;;;;;;1.98;1.88;;;;;;;;;;5036335;28;20068;-54
2021/11/03 11:01:23;;;;;;;7.30;2.35;;;;;;;;;;5030868;28;20056;-54
2021/11/03 11:03:57;;;;;;;3.38;3.10;;;;;;;;;;5032559;28;20034;-51
2021/11/03 11:06:27;;;;;;;3.08;1.58;;;;;;;;;;5032603;28;20071;-53
2021/11/03 11:09:14;;;;;;;2.97;2.67;;;;;;;;;;5024641;28;20038;-53
2021/11/03 11:11:43;;;;;;;4.03;2.03;;;;;;;;;;5029572;28;20049;-49
2021/11/03 11:14:18;;;;;;;4.00;2.30;;;;;;;;;;5033554;28;20057;-52
2021/11/03 11:17:03;;;;;;;4.38;2.17;;;;;;;;;;5033324;28;20098;-52
2021/11/03 11:19:49;;;;;;;3.33;1.40;;;;;;;;;;5035319;28;20113;-52
2021/11/03 11:22:36;;;;;;;3.15;1.70;;;;;;;;;;5029686;28;20512;-54
2021/11/03 11:25:12;;;;;;;4.10;1.70;;;;;;;;;;5032066;28;20029;-54
2021/11/03 11:27:51;;;;;;;3.33;1.52;;;;;;;;;;5025701;28;20036;-55
2021/11/03 11:30:20;;;;;;;3.78;1.65;;;;;;;;;;5037392;28;20048;-54
2021/11/03 11:32:54;;;;;;;4.10;2.28;;;;;;;;;;5025343;28;20052;-53
2021/11/03 11:35:39;;;;;;;3.72;1.55;;;;;;;;;;5041366;28;20037;-52
2021/11/03 11:38:15;;;;;;;4.30;1.70;;;;;;;;;;5024121;28;20064;-54
2021/11/03 11:40:45;;;;;;;4.93;1.80;;;;;;;;;;5027270;28;20052;-53
2021/11/03 11:43:12;;;;;;;2.90;1.17;;;;;;;;;;5025601;28;20486;-54
2021/11/03 11:45:40;;;;;;;2.47;1.00;;;;;;;;;;5024710;28;20034;-52
2021/11/03 11:48:15;;;;;;;2.33;1.00;;;;;;;;;;5030377;28;20584;-54
2021/11/03 11:50:56;;;;;;;5.72;1.40;;;;;;;;;;5027894;28;20056;-53
2021/11/03 11:53:35;;;;;;;5.47;1.23;;;;;;;;;;5019509;28;20493;-54
2021/11/03 11:56:22;;;;;;;5.07;1.38;;;;;;;;;;5028444;28;20067;-52
2021/11/03 11:58:50;;;;;;;2.08;1.00;;;;;;;;;;5029691;28;20471;-54
2021/11/03 12:01:23;;;;;;;6.32;1.15;;;;;;;;;;5027583;28;20049;-53
2021/11/03 12:04:13;;;;;;;1.95;1.40;;;;;;;;;;5027074;28;20474;-54
2021/11/03 12:06:46;;;;;;;3.60;1.25;;;;;;;;;;5014997;28;20084;-53
2021/11/03 12:09:31;;;;;;;3.90;1.33;;;;;;;;;;5028260;28;20124;-54
2021/11/03 12:11:58;;;;;;;2.92;1.10;;;;;;;;;;5023606;28;20091;-54
2021/11/03 12:14:37;;;;;;;3.95;1.42;;;;;;;;;;5030743;28;20043;-54
2021/11/03 12:17:06;;;;;;;2.78;1.25;;;;;;;;;;5029731;28;20029;-54
2021/11/03 12:19:46;;;;;;;5.75;1.40;;;;;;;;;;5027604;28;20050;-54
2021/11/03 12:22:16;;;;;;;7.70;1.40;;;;;;;;;;5030326;28;20444;-54
2021/11/03 12:24:42;;;;;;;7.80;1.20;;;;;;;;;;5028364;28;20038;-54
2021/11/03 12:27:21;;;;;;;2.08;1.65;;;;;;;;;;5031303;28;20124;-53
2021/11/03 12:30:08;;;;;;;5.35;2.28;;;;;;;;;;5029355;28;20457;-54
2021/11/03 12:32:40;;;;;;;2.38;2.17;;;;;;;;;;5016001;28;20061;-54
2021/11/03 12:35:19;;;;;;;3.90;1.00;;;;;;;;;;5030219;28;20050;-52
2021/11/03 12:37:47;;;;;;;3.72;1.10;;;;;;;;;;5028186;28;20042;-54
2021/11/03 12:40:29;;;;;;;2.60;1.92;;;;;;;;;;5030183;28;20043;-60
2021/11/03 12:42:58;;;;;;;2.35;1.30;;;;;;;;;;5028434;28;20053;-61
2021/11/03 12:45:43;;;;;;;3.80;1.40;;;;;;;;;;5029320;28;20072;-60
2021/11/03 12:48:17;;;;;;;3.15;2.08;;;;;;;;;;5017816;28;20045;-61
2021/11/03 12:50:46;;;;;;;3.28;1.50;;;;;;;;;;5031249;28;20037;-60
2021/11/03 12:53:15;;;;;;;3.40;1.80;;;;;;;;;;5030396;28;20634;-60
2021/11/03 12:56:02;;;;;;;4.10;1.33;;;;;;;;;;5030336;28;20103;-58
2021/11/03 12:58:34;;;;;;;2.80;1.70;;;;;;;;;;5026677;28;20033;-59
2021/11/03 13:01:03;;;;;;;3.58;1.45;;;;;;;;;;5017321;28;20038;-58
2021/11/03 13:03:32;;;;;;;1.83;1.38;;;;;;;;;;5029570;28;20523;-59
2021/11/03 13:05:59;;;;;;;5.13;2.58;;;;;;;;;;5029498;28;20077;-57
2021/11/03 13:08:37;;;;;;;4.47;4.07;;;;;;;;;;5031611;28;20058;-56
2021/11/03 13:11:24;;;;;;;2.67;2.58;;;;;;;;;;5028555;28;20045;-56
2021/11/03 13:13:53;;;;;;;1.20;1.20;;;;;;;;;;5021186;28;20113;-58
2021/11/03 13:16:20;;;;;;;3.75;3.55;;;;;;;;;;5019476;28;20054;-59
2021/11/03 13:18:46;;;;;;;2.50;2.40;;;;;;;;;;5021240;28;20041;-58
2021/11/03 13:21:13;;;;;;;8.13;6.57;;;;;;;;;;5031114;28;20602;-59
2021/11/03 13:23:41;;;;;;;2.40;2.15;;;;;;;;;;5027673;28;20037;-59
2021/11/03 13:26:14;;;;;;;3.95;3.83;;;;;;;;;;5023449;28;20493;-58
2021/11/03 13:28:48;;;;;;;4.35;3.97;;;;;;;;;;5030289;28;20037;-59
2021/11/03 13:31:15;;;;;;;3.33;2.95;;;;;;;;;;5027100;28;20041;-59
2021/11/03 13:33:42;;;;;;;2.50;2.30;;;;;;;;;;5030257;28;20044;-59
2021/11/03 13:36:22;;;;;;;3.25;1.75;;;;;;;;;;5026205;28;20057;-48
2021/11/03 13:38:58;;;;;;;2.55;1.67;;;;;;;;;;5033032;28;20037;-54
2021/11/03 13:41:32;;;;;;;2.50;1.33;;;;;;;;;;5022531;28;20050;-57
2021/11/03 13:44:31;;;;;;;1.40;1.30;;;;;;;;;;5022639;28;20049;-57
2021/11/03 13:46:58;;;;;;;3.05;1.55;;;;;;;;;;5036279;28;20119;-57
2021/11/03 13:49:27;;;;;;;3.42;2.05;;;;;;;;;;5028509;28;20052;-57
2021/11/03 13:51:55;;;;;;;1.65;1.42;;;;;;;;;;5026854;28;20057;-56
2021/11/03 13:54:34;;;;;;;4.35;2.20;;;;;;;;;;5029706;28;20508;-55
2021/11/03 13:57:04;;;;;;;7.78;4.40;;;;;;;;;;5025269;28;20034;-57
2021/11/03 13:59:37;;;;;;;3.88;3.58;;;;;;;;;;5016100;28;20049;-57
2021/11/03 14:02:04;;;;;;;;;;;;;;;;;;5028462;28;20527;-57
2021/11/03 14:04:45;;;;;;;4.40;3.90;;;;;;;;;;5028747;28;19921;-57
2021/11/03 14:07:15;;;;;;;3.63;3.28;;;;;;;;;;5018732;28;20049;-55
2021/11/03 14:09:43;;;;;;;3.65;3.20;;;;;;;;;;5026289;28;20452;-56
2021/11/03 14:12:10;;;;;;;3.05;2.95;;;;;;;;;;5029069;28;20100;-57
2021/11/03 14:14:38;;;;;;;2.92;2.53;;;;;;;;;;5029540;28;20049;-57
2021/11/03 14:17:11;;;;;;;2.30;2.10;;;;;;;;;;5027999;28;20174;-57
2021/11/03 14:19:49;;;;;;;2.67;2.35;;;;;;;;;;5023797;28;20037;-56
2021/11/03 14:22:18;;;;;;;1.67;1.67;;;;;;;;;;5027622;28;20045;-57
2021/11/03 14:24:45;;;;;;;2.72;1.75;;;;;;;;;;5021279;28;20042;-54
2021/11/03 14:27:28;;;;;;;4.95;1.83;;;;;;;;;;5033104;28;20034;-57
2021/11/03 14:29:55;;;;;;;1.85;1.15;;;;;;;;;;5031909;28;20045;-56
2021/11/03 14:32:21;;;;;;;3.45;2.20;;;;;;;;;;5034368;28;20116;-57
2021/11/03 14:34:51;;;;;;;2.22;1.30;;;;;;;;;;5033786;28;20041;-57
2021/11/03 14:37:19;;;;;;;1.70;1.60;;;;;;;;;;5032967;28;20053;-57
2021/11/03 14:39:49;;;;;;;2.35;2.17;;;;;;;;;;5033979;28;20111;-56
2021/11/03 14:42:17;;;;;;;2.10;1.85;;;;;;;;;;5032040;28;20088;-57
2021/11/03 14:44:45;;;;;;;3.78;1.08;;;;;;;;;;5032741;28;20499;-57
2021/11/03 14:47:17;;;;;;;1.98;1.20;;;;;;;;;;5032729;28;20198;-57
2021/11/03 14:49:50;;;;;;;1.40;1.00;;;;;;;;;;5024412;28;20095;-57